sensor_id;sensor_type;location;lat;lon;timestamp;P1;durP1;ratioP1;P2;durP2;ratioP2
34828;SDS011;21042;47.620;12.188;2022-09-29T00:00:14;0.10;;;0.10;;
34828;SDS011;21042;47.620;12.188;2022-09-29T00:02:41;0.28;;;0.28;;
34828;SDS011;21042;47.620;12.188;2022-09-29T00:05:08;0.35;;;0.20;;
34828;SDS011;21042;47.620;12.188;2022-09-29T00:07:34;0.22;;;0.20;;
34828;SDS011;21042;47.620;12.188;2022-09-29T00:10:01;2.03;;;0.40;;
34828;SDS011;21042;47.620;12.188;2022-09-29T00:12:29;0.40;;;0.20;;
34828;SDS011;21042;47.620;12.188;2022-09-29T00:14:56;0.52;;;0.20;;
34828;SDS011;21042;47.620;12.188;2022-09-29T00:17:23;0.33;;;0.20;;
34828;SDS011;21042;47.620;12.188;2022-09-29T00:19:50;0.65;;;0.30;;
34828;SDS011;21042;47.620;12.188;2022-09-29T00:22:16;4.68;;;0.20;;
34828;SDS011;21042;47.620;12.188;2022-09-29T00:24:43;0.75;;;0.47;;
34828;SDS011;21042;47.620;12.188;2022-09-29T00:27:13;0.47;;;0.22;;
34828;SDS011;21042;47.620;12.188;2022-09-29T00:29:40;1.02;;;0.30;;
34828;SDS011;21042;47.620;12.188;2022-09-29T00:32:07;1.63;;;0.40;;
34828;SDS011;21042;47.620;12.188;2022-09-29T00:34:34;0.70;;;0.38;;
34828;SDS011;21042;47.620;12.188;2022-09-29T00:37:01;0.43;;;0.28;;
34828;SDS011;21042;47.620;12.188;2022-09-29T00:39:27;0.30;;;0.20;;
34828;SDS011;21042;47.620;12.188;2022-09-29T00:41:54;1.05;;;0.30;;
34828;SDS011;21042;47.620;12.188;2022-09-29T00:47:17;0.40;;;0.30;;
34828;SDS011;21042;47.620;12.188;2022-09-29T00:49:52;0.73;;;0.40;;
34828;SDS011;21042;47.620;12.188;2022-09-29T00:55:01;4.43;;;0.35;;
34828;SDS011;21042;47.620;12.188;2022-09-29T00:57:50;0.40;;;0.28;;
34828;SDS011;21042;47.620;12.188;2022-09-29T01:00:22;0.80;;;0.40;;
34828;SDS011;21042;47.620;12.188;2022-09-29T01:03:00;0.47;;;0.20;;
34828;SDS011;21042;47.620;12.188;2022-09-29T01:05:35;0.80;;;0.45;;
34828;SDS011;21042;47.620;12.188;2022-09-29T01:08:08;2.00;;;0.40;;
34828;SDS011;21042;47.620;12.188;2022-09-29T01:10:39;2.13;;;0.38;;
34828;SDS011;21042;47.620;12.188;2022-09-29T01:13:08;0.93;;;0.40;;
34828;SDS011;21042;47.620;12.188;2022-09-29T01:15:35;0.60;;;0.40;;
34828;SDS011;21042;47.620;12.188;2022-09-29T01:18:02;1.33;;;0.70;;
34828;SDS011;21042;47.620;12.188;2022-09-29T01:20:29;0.60;;;0.45;;
34828;SDS011;21042;47.620;12.188;2022-09-29T01:33:20;0.88;;;0.30;;
34828;SDS011;21042;47.620;12.188;2022-09-29T01:41:47;1.15;;;0.60;;
34828;SDS011;21042;47.620;12.188;2022-09-29T01:47:06;2.92;;;0.63;;
34828;SDS011;21042;47.620;12.188;2022-09-29T01:49:44;2.50;;;0.60;;
34828;SDS011;21042;47.620;12.188;2022-09-29T01:52:16;3.33;;;0.85;;
34828;SDS011;21042;47.620;12.188;2022-09-29T01:54:47;2.72;;;0.80;;
34828;SDS011;21042;47.620;12.188;2022-09-29T02:00:01;1.85;;;0.88;;
34828;SDS011;21042;47.620;12.188;2022-09-29T02:02:48;0.50;;;0.50;;
34828;SDS011;21042;47.620;12.188;2022-09-29T02:05:19;1.88;;;0.70;;
34828;SDS011;21042;47.620;12.188;2022-09-29T02:07:54;3.17;;;1.02;;
34828;SDS011;21042;47.620;12.188;2022-09-29T02:10:27;2.58;;;0.93;;
34828;SDS011;21042;47.620;12.188;2022-09-29T02:12:58;2.75;;;1.00;;
34828;SDS011;21042;47.620;12.188;2022-09-29T02:15:29;1.48;;;0.80;;
34828;SDS011;21042;47.620;12.188;2022-09-29T02:18:02;1.08;;;0.73;;
34828;SDS011;21042;47.620;12.188;2022-09-29T02:20:35;4.93;;;1.45;;
34828;SDS011;21042;47.620;12.188;2022-09-29T02:23:01;2.67;;;1.00;;
34828;SDS011;21042;47.620;12.188;2022-09-29T02:25:28;2.42;;;1.50;;
34828;SDS011;21042;47.620;12.188;2022-09-29T02:28:00;4.07;;;1.70;;
34828;SDS011;21042;47.620;12.188;2022-09-29T02:30:27;7.60;;;1.63;;
34828;SDS011;21042;47.620;12.188;2022-09-29T02:32:53;35.17;;;2.13;;
34828;SDS011;21042;47.620;12.188;2022-09-29T02:35:20;9.55;;;1.30;;
34828;SDS011;21042;47.620;12.188;2022-09-29T02:37:51;3.83;;;1.25;;
34828;SDS011;21042;47.620;12.188;2022-09-29T02:46:46;56.40;;;3.38;;
34828;SDS011;21042;47.620;12.188;2022-09-29T02:52:24;60.85;;;3.42;;
34828;SDS011;21042;47.620;12.188;2022-09-29T02:57:30;49.47;;;3.38;;
34828;SDS011;21042;47.620;12.188;2022-09-29T03:00:11;26.27;;;2.03;;
34828;SDS011;21042;47.620;12.188;2022-09-29T03:02:40;13.20;;;2.00;;
34828;SDS011;21042;47.620;12.188;2022-09-29T03:05:08;7.53;;;2.00;;
34828;SDS011;21042;47.620;12.188;2022-09-29T03:07:37;33.10;;;2.20;;
34828;SDS011;21042;47.620;12.188;2022-09-29T03:10:05;14.90;;;3.08;;
34828;SDS011;21042;47.620;12.188;2022-09-29T03:12:33;8.73;;;2.17;;
34828;SDS011;21042;47.620;12.188;2022-09-29T03:17:27;4.25;;;2.25;;
34828;SDS011;21042;47.620;12.188;2022-09-29T03:19:54;5.03;;;1.40;;
34828;SDS011;21042;47.620;12.188;2022-09-29T03:22:21;4.97;;;1.20;;
34828;SDS011;21042;47.620;12.188;2022-09-29T03:24:48;0.88;;;0.60;;
34828;SDS011;21042;47.620;12.188;2022-09-29T03:27:15;0.40;;;0.30;;
34828;SDS011;21042;47.620;12.188;2022-09-29T03:29:42;2.60;;;0.80;;
34828;SDS011;21042;47.620;12.188;2022-09-29T03:32:08;2.15;;;1.30;;
34828;SDS011;21042;47.620;12.188;2022-09-29T03:34:35;3.63;;;1.27;;
34828;SDS011;21042;47.620;12.188;2022-09-29T03:37:02;2.33;;;1.13;;
34828;SDS011;21042;47.620;12.188;2022-09-29T03:41:56;1.20;;;0.80;;
34828;SDS011;21042;47.620;12.188;2022-09-29T03:44:23;0.77;;;0.45;;
34828;SDS011;21042;47.620;12.188;2022-09-29T03:46:49;0.85;;;0.38;;
34828;SDS011;21042;47.620;12.188;2022-09-29T03:49:16;0.30;;;0.30;;
34828;SDS011;21042;47.620;12.188;2022-09-29T03:51:43;0.65;;;0.63;;
34828;SDS011;21042;47.620;12.188;2022-09-29T03:54:10;1.42;;;0.88;;
34828;SDS011;21042;47.620;12.188;2022-09-29T03:56:37;2.28;;;0.98;;
34828;SDS011;21042;47.620;12.188;2022-09-29T03:59:04;2.03;;;0.57;;
34828;SDS011;21042;47.620;12.188;2022-09-29T04:01:34;1.20;;;0.77;;
34828;SDS011;21042;47.620;12.188;2022-09-29T04:04:03;5.45;;;0.70;;
34828;SDS011;21042;47.620;12.188;2022-09-29T04:06:32;6.20;;;0.80;;
34828;SDS011;21042;47.620;12.188;2022-09-29T04:08:59;2.88;;;1.10;;
34828;SDS011;21042;47.620;12.188;2022-09-29T04:11:25;3.55;;;2.05;;
34828;SDS011;21042;47.620;12.188;2022-09-29T04:13:52;3.25;;;1.90;;
34828;SDS011;21042;47.620;12.188;2022-09-29T04:16:19;5.88;;;2.30;;
34828;SDS011;21042;47.620;12.188;2022-09-29T04:18:46;4.50;;;2.67;;
34828;SDS011;21042;47.620;12.188;2022-09-29T04:21:13;4.95;;;2.92;;
34828;SDS011;21042;47.620;12.188;2022-09-29T04:23:40;6.03;;;2.78;;
34828;SDS011;21042;47.620;12.188;2022-09-29T04:26:06;5.28;;;2.42;;
34828;SDS011;21042;47.620;12.188;2022-09-29T04:28:34;3.95;;;1.98;;
34828;SDS011;21042;47.620;12.188;2022-09-29T04:31:01;9.05;;;1.33;;
34828;SDS011;21042;47.620;12.188;2022-09-29T04:33:28;1.73;;;1.08;;
34828;SDS011;21042;47.620;12.188;2022-09-29T04:35:57;1.23;;;1.00;;
34828;SDS011;21042;47.620;12.188;2022-09-29T04:38:24;1.27;;;0.90;;
34828;SDS011;21042;47.620;12.188;2022-09-29T04:40:51;0.73;;;0.57;;
34828;SDS011;21042;47.620;12.188;2022-09-29T04:43:18;0.28;;;0.28;;
34828;SDS011;21042;47.620;12.188;2022-09-29T04:45:44;6.95;;;0.82;;
34828;SDS011;21042;47.620;12.188;2022-09-29T04:48:11;0.85;;;0.60;;
34828;SDS011;21042;47.620;12.188;2022-09-29T04:50:38;3.25;;;0.75;;
34828;SDS011;21042;47.620;12.188;2022-09-29T04:53:05;0.90;;;0.60;;
34828;SDS011;21042;47.620;12.188;2022-09-29T04:55:32;1.48;;;0.50;;
34828;SDS011;21042;47.620;12.188;2022-09-29T04:57:59;4.30;;;0.77;;
34828;SDS011;21042;47.620;12.188;2022-09-29T05:00:26;9.02;;;3.47;;
34828;SDS011;21042;47.620;12.188;2022-09-29T05:02:52;5.50;;;2.40;;
34828;SDS011;21042;47.620;12.188;2022-09-29T05:05:19;2.78;;;1.65;;
34828;SDS011;21042;47.620;12.188;2022-09-29T05:07:46;4.13;;;1.90;;
34828;SDS011;21042;47.620;12.188;2022-09-29T05:10:13;6.30;;;3.25;;
34828;SDS011;21042;47.620;12.188;2022-09-29T05:12:40;2.20;;;1.27;;
34828;SDS011;21042;47.620;12.188;2022-09-29T05:15:12;5.78;;;1.90;;
34828;SDS011;21042;47.620;12.188;2022-09-29T05:17:38;4.35;;;1.67;;
34828;SDS011;21042;47.620;12.188;2022-09-29T05:20:05;1.67;;;0.85;;
34828;SDS011;21042;47.620;12.188;2022-09-29T05:22:32;0.75;;;0.55;;
34828;SDS011;21042;47.620;12.188;2022-09-29T05:24:59;3.33;;;0.60;;
34828;SDS011;21042;47.620;12.188;2022-09-29T05:27:26;0.63;;;0.40;;
34828;SDS011;21042;47.620;12.188;2022-09-29T05:29:53;0.50;;;0.50;;
34828;SDS011;21042;47.620;12.188;2022-09-29T05:32:20;1.52;;;0.80;;
34828;SDS011;21042;47.620;12.188;2022-09-29T05:34:46;1.73;;;1.23;;
34828;SDS011;21042;47.620;12.188;2022-09-29T05:37:15;8.07;;;3.67;;
34828;SDS011;21042;47.620;12.188;2022-09-29T05:39:43;26.52;;;11.70;;
34828;SDS011;21042;47.620;12.188;2022-09-29T05:42:10;24.20;;;11.65;;
34828;SDS011;21042;47.620;12.188;2022-09-29T05:44:37;13.75;;;6.55;;
34828;SDS011;21042;47.620;12.188;2022-09-29T05:47:04;8.30;;;4.78;;
34828;SDS011;21042;47.620;12.188;2022-09-29T05:49:31;5.57;;;3.63;;
34828;SDS011;21042;47.620;12.188;2022-09-29T05:51:58;10.05;;;3.28;;
34828;SDS011;21042;47.620;12.188;2022-09-29T05:56:55;9.23;;;3.97;;
34828;SDS011;21042;47.620;12.188;2022-09-29T05:59:22;11.02;;;4.78;;
34828;SDS011;21042;47.620;12.188;2022-09-29T06:01:48;6.80;;;2.58;;
34828;SDS011;21042;47.620;12.188;2022-09-29T06:04:15;2.38;;;1.30;;
34828;SDS011;21042;47.620;12.188;2022-09-29T06:06:42;3.30;;;1.20;;
34828;SDS011;21042;47.620;12.188;2022-09-29T06:09:09;2.15;;;1.08;;
34828;SDS011;21042;47.620;12.188;2022-09-29T06:11:36;2.28;;;1.35;;
34828;SDS011;21042;47.620;12.188;2022-09-29T06:14:03;2.67;;;1.40;;
34828;SDS011;21042;47.620;12.188;2022-09-29T06:16:30;2.45;;;1.52;;
34828;SDS011;21042;47.620;12.188;2022-09-29T06:18:58;1.80;;;1.20;;
34828;SDS011;21042;47.620;12.188;2022-09-29T06:21:26;2.10;;;1.55;;
34828;SDS011;21042;47.620;12.188;2022-09-29T06:23:54;7.88;;;2.92;;
34828;SDS011;21042;47.620;12.188;2022-09-29T06:26:22;26.98;;;12.43;;
34828;SDS011;21042;47.620;12.188;2022-09-29T06:28:50;24.63;;;10.98;;
34828;SDS011;21042;47.620;12.188;2022-09-29T06:31:18;9.45;;;6.45;;
34828;SDS011;21042;47.620;12.188;2022-09-29T06:33:47;4.15;;;2.95;;
34828;SDS011;21042;47.620;12.188;2022-09-29T06:36:18;4.07;;;3.00;;
34828;SDS011;21042;47.620;12.188;2022-09-29T06:39:12;3.67;;;2.90;;
34828;SDS011;21042;47.620;12.188;2022-09-29T06:41:40;11.20;;;4.75;;
34828;SDS011;21042;47.620;12.188;2022-09-29T06:44:09;7.35;;;4.10;;
34828;SDS011;21042;47.620;12.188;2022-09-29T06:46:36;7.65;;;2.90;;
34828;SDS011;21042;47.620;12.188;2022-09-29T06:49:03;4.50;;;2.55;;
34828;SDS011;21042;47.620;12.188;2022-09-29T06:51:30;3.40;;;2.40;;
34828;SDS011;21042;47.620;12.188;2022-09-29T06:54:10;6.47;;;1.95;;
34828;SDS011;21042;47.620;12.188;2022-09-29T06:56:38;3.90;;;1.98;;
34828;SDS011;21042;47.620;12.188;2022-09-29T06:59:05;8.10;;;2.15;;
34828;SDS011;21042;47.620;12.188;2022-09-29T07:01:33;4.82;;;2.42;;
34828;SDS011;21042;47.620;12.188;2022-09-29T07:04:00;6.75;;;3.05;;
34828;SDS011;21042;47.620;12.188;2022-09-29T07:06:27;6.25;;;3.47;;
34828;SDS011;21042;47.620;12.188;2022-09-29T07:11:22;8.07;;;4.18;;
34828;SDS011;21042;47.620;12.188;2022-09-29T07:13:49;11.85;;;5.28;;
34828;SDS011;21042;47.620;12.188;2022-09-29T07:16:20;6.45;;;4.30;;
34828;SDS011;21042;47.620;12.188;2022-09-29T07:18:49;9.38;;;4.60;;
34828;SDS011;21042;47.620;12.188;2022-09-29T07:21:16;4.88;;;3.67;;
34828;SDS011;21042;47.620;12.188;2022-09-29T07:23:44;5.70;;;3.75;;
34828;SDS011;21042;47.620;12.188;2022-09-29T07:26:12;5.88;;;4.25;;
34828;SDS011;21042;47.620;12.188;2022-09-29T07:28:41;5.50;;;3.40;;
34828;SDS011;21042;47.620;12.188;2022-09-29T07:31:10;6.63;;;3.92;;
34828;SDS011;21042;47.620;12.188;2022-09-29T07:33:41;7.93;;;3.80;;
34828;SDS011;21042;47.620;12.188;2022-09-29T07:36:09;4.95;;;3.20;;
34828;SDS011;21042;47.620;12.188;2022-09-29T07:38:37;5.38;;;3.25;;
34828;SDS011;21042;47.620;12.188;2022-09-29T07:41:07;4.45;;;2.90;;
34828;SDS011;21042;47.620;12.188;2022-09-29T07:43:38;12.48;;;5.50;;
34828;SDS011;21042;47.620;12.188;2022-09-29T07:48:33;6.93;;;3.42;;
34828;SDS011;21042;47.620;12.188;2022-09-29T07:53:36;6.90;;;3.53;;
34828;SDS011;21042;47.620;12.188;2022-09-29T07:56:10;5.43;;;3.80;;
34828;SDS011;21042;47.620;12.188;2022-09-29T07:58:44;4.78;;;3.08;;
34828;SDS011;21042;47.620;12.188;2022-09-29T08:01:12;5.13;;;2.38;;
34828;SDS011;21042;47.620;12.188;2022-09-29T08:03:51;3.88;;;2.80;;
34828;SDS011;21042;47.620;12.188;2022-09-29T08:06:20;4.20;;;3.05;;
34828;SDS011;21042;47.620;12.188;2022-09-29T08:08:48;5.05;;;3.22;;
34828;SDS011;21042;47.620;12.188;2022-09-29T08:11:28;4.97;;;3.00;;
34828;SDS011;21042;47.620;12.188;2022-09-29T08:13:57;9.50;;;3.30;;
34828;SDS011;21042;47.620;12.188;2022-09-29T08:16:25;6.97;;;2.70;;
34828;SDS011;21042;47.620;12.188;2022-09-29T08:18:52;5.03;;;2.55;;
34828;SDS011;21042;47.620;12.188;2022-09-29T08:21:19;3.00;;;2.60;;
34828;SDS011;21042;47.620;12.188;2022-09-29T08:23:46;4.03;;;2.60;;
34828;SDS011;21042;47.620;12.188;2022-09-29T08:26:14;4.47;;;2.20;;
34828;SDS011;21042;47.620;12.188;2022-09-29T08:28:42;3.38;;;2.20;;
34828;SDS011;21042;47.620;12.188;2022-09-29T08:31:17;6.45;;;2.50;;
34828;SDS011;21042;47.620;12.188;2022-09-29T08:33:46;3.78;;;2.67;;
34828;SDS011;21042;47.620;12.188;2022-09-29T08:36:15;4.03;;;2.75;;
34828;SDS011;21042;47.620;12.188;2022-09-29T08:38:43;5.75;;;3.35;;
34828;SDS011;21042;47.620;12.188;2022-09-29T08:52:54;3.75;;;2.28;;
34828;SDS011;21042;47.620;12.188;2022-09-29T08:55:27;5.68;;;3.17;;
34828;SDS011;21042;47.620;12.188;2022-09-29T08:58:08;8.32;;;2.45;;
34828;SDS011;21042;47.620;12.188;2022-09-29T09:00:45;2.40;;;1.50;;
34828;SDS011;21042;47.620;12.188;2022-09-29T09:03:41;2.90;;;1.40;;
34828;SDS011;21042;47.620;12.188;2022-09-29T09:09:56;2.78;;;1.90;;
34828;SDS011;21042;47.620;12.188;2022-09-29T09:17:16;8.40;;;1.70;;
34828;SDS011;21042;47.620;12.188;2022-09-29T09:25:54;1.92;;;1.15;;
34828;SDS011;21042;47.620;12.188;2022-09-29T09:28:35;4.00;;;1.70;;
34828;SDS011;21042;47.620;12.188;2022-09-29T09:31:15;2.10;;;1.50;;
34828;SDS011;21042;47.620;12.188;2022-09-29T09:33:49;1.77;;;1.33;;
34828;SDS011;21042;47.620;12.188;2022-09-29T09:39:36;1.60;;;1.13;;
34828;SDS011;21042;47.620;12.188;2022-09-29T09:42:13;3.05;;;1.42;;
34828;SDS011;21042;47.620;12.188;2022-09-29T09:44:48;1.10;;;1.00;;
34828;SDS011;21042;47.620;12.188;2022-09-29T09:47:26;4.05;;;1.13;;
34828;SDS011;21042;47.620;12.188;2022-09-29T09:49:57;2.08;;;1.25;;
34828;SDS011;21042;47.620;12.188;2022-09-29T09:52:38;1.23;;;1.13;;
34828;SDS011;21042;47.620;12.188;2022-09-29T09:55:12;1.55;;;0.90;;
34828;SDS011;21042;47.620;12.188;2022-09-29T10:00:19;2.97;;;1.50;;
34828;SDS011;21042;47.620;12.188;2022-09-29T10:02:52;2.38;;;1.40;;
34828;SDS011;21042;47.620;12.188;2022-09-29T10:10:48;0.88;;;0.70;;
34828;SDS011;21042;47.620;12.188;2022-09-29T10:13:24;1.20;;;0.90;;
34828;SDS011;21042;47.620;12.188;2022-09-29T10:15:55;2.38;;;0.98;;
34828;SDS011;21042;47.620;12.188;2022-09-29T10:21:02;2.10;;;0.75;;
34828;SDS011;21042;47.620;12.188;2022-09-29T10:23:33;2.55;;;1.27;;
34828;SDS011;21042;47.620;12.188;2022-09-29T10:28:50;1.52;;;1.10;;
34828;SDS011;21042;47.620;12.188;2022-09-29T10:31:30;0.90;;;0.90;;
34828;SDS011;21042;47.620;12.188;2022-09-29T10:34:01;2.00;;;0.85;;
34828;SDS011;21042;47.620;12.188;2022-09-29T10:36:30;1.95;;;1.05;;
34828;SDS011;21042;47.620;12.188;2022-09-29T10:42:24;1.35;;;1.00;;
34828;SDS011;21042;47.620;12.188;2022-09-29T10:47:26;0.80;;;0.77;;
34828;SDS011;21042;47.620;12.188;2022-09-29T10:52:47;0.82;;;0.77;;
34828;SDS011;21042;47.620;12.188;2022-09-29T10:55:22;0.80;;;0.57;;
34828;SDS011;21042;47.620;12.188;2022-09-29T10:57:57;1.02;;;0.60;;
34828;SDS011;21042;47.620;12.188;2022-09-29T11:00:27;1.95;;;0.90;;
34828;SDS011;21042;47.620;12.188;2022-09-29T11:02:59;0.88;;;0.80;;
34828;SDS011;21042;47.620;12.188;2022-09-29T11:05:30;1.77;;;0.82;;
34828;SDS011;21042;47.620;12.188;2022-09-29T11:10:32;2.10;;;0.52;;
34828;SDS011;21042;47.620;12.188;2022-09-29T11:15:50;2.92;;;1.10;;
34828;SDS011;21042;47.620;12.188;2022-09-29T11:18:25;2.42;;;0.70;;
34828;SDS011;21042;47.620;12.188;2022-09-29T11:21:06;1.15;;;0.70;;
34828;SDS011;21042;47.620;12.188;2022-09-29T11:24:02;1.95;;;0.98;;
34828;SDS011;21042;47.620;12.188;2022-09-29T11:26:53;1.20;;;0.60;;
34828;SDS011;21042;47.620;12.188;2022-09-29T11:35:38;0.75;;;0.75;;
34828;SDS011;21042;47.620;12.188;2022-09-29T11:41:17;3.17;;;0.75;;
34828;SDS011;21042;47.620;12.188;2022-09-29T11:43:54;1.25;;;0.50;;
34828;SDS011;21042;47.620;12.188;2022-09-29T11:46:33;3.40;;;0.70;;
34828;SDS011;21042;47.620;12.188;2022-09-29T11:49:07;4.15;;;0.80;;
34828;SDS011;21042;47.620;12.188;2022-09-29T11:52:02;1.30;;;0.60;;
34828;SDS011;21042;47.620;12.188;2022-09-29T11:59:54;1.17;;;0.50;;
34828;SDS011;21042;47.620;12.188;2022-09-29T12:10:31;0.65;;;0.40;;
34828;SDS011;21042;47.620;12.188;2022-09-29T12:16:23;2.50;;;0.40;;
34828;SDS011;21042;47.620;12.188;2022-09-29T12:18:56;3.22;;;0.40;;
34828;SDS011;21042;47.620;12.188;2022-09-29T12:24:09;0.43;;;0.28;;
34828;SDS011;21042;47.620;12.188;2022-09-29T12:26:42;0.90;;;0.50;;
34828;SDS011;21042;47.620;12.188;2022-09-29T12:29:21;1.02;;;0.60;;
34828;SDS011;21042;47.620;12.188;2022-09-29T12:31:59;0.65;;;0.52;;
34828;SDS011;21042;47.620;12.188;2022-09-29T12:34:39;2.83;;;0.80;;
34828;SDS011;21042;47.620;12.188;2022-09-29T12:42:20;0.60;;;0.60;;
34828;SDS011;21042;47.620;12.188;2022-09-29T12:48:04;1.13;;;0.70;;
34828;SDS011;21042;47.620;12.188;2022-09-29T12:50:56;1.48;;;0.75;;
34828;SDS011;21042;47.620;12.188;2022-09-29T12:53:36;1.20;;;0.65;;
34828;SDS011;21042;47.620;12.188;2022-09-29T12:56:37;2.95;;;0.75;;
34828;SDS011;21042;47.620;12.188;2022-09-29T12:59:11;0.70;;;0.60;;
34828;SDS011;21042;47.620;12.188;2022-09-29T13:01:49;2.58;;;0.63;;
34828;SDS011;21042;47.620;12.188;2022-09-29T13:09:30;1.40;;;0.50;;
34828;SDS011;21042;47.620;12.188;2022-09-29T13:20:22;1.35;;;0.93;;
34828;SDS011;21042;47.620;12.188;2022-09-29T13:23:08;1.40;;;1.08;;
34828;SDS011;21042;47.620;12.188;2022-09-29T13:28:42;1.90;;;0.90;;
34828;SDS011;21042;47.620;12.188;2022-09-29T13:31:19;1.95;;;0.90;;
34828;SDS011;21042;47.620;12.188;2022-09-29T13:33:55;1.70;;;0.90;;
34828;SDS011;21042;47.620;12.188;2022-09-29T13:36:27;1.17;;;0.93;;
34828;SDS011;21042;47.620;12.188;2022-09-29T13:39:05;0.82;;;0.73;;
34828;SDS011;21042;47.620;12.188;2022-09-29T13:41:44;1.05;;;0.85;;
34828;SDS011;21042;47.620;12.188;2022-09-29T13:46:48;1.23;;;0.80;;
34828;SDS011;21042;47.620;12.188;2022-09-29T13:51:59;1.15;;;1.00;;
34828;SDS011;21042;47.620;12.188;2022-09-29T13:54:46;1.65;;;1.10;;
34828;SDS011;21042;47.620;12.188;2022-09-29T13:57:17;10.38;;;1.40;;
34828;SDS011;21042;47.620;12.188;2022-09-29T14:09:12;1.63;;;1.23;;
34828;SDS011;21042;47.620;12.188;2022-09-29T14:11:49;1.88;;;1.30;;
34828;SDS011;21042;47.620;12.188;2022-09-29T14:14:19;2.60;;;1.25;;
34828;SDS011;21042;47.620;12.188;2022-09-29T14:27:39;3.97;;;1.38;;
34828;SDS011;21042;47.620;12.188;2022-09-29T14:33:26;2.90;;;1.60;;
34828;SDS011;21042;47.620;12.188;2022-09-29T14:43:37;3.15;;;2.15;;
34828;SDS011;21042;47.620;12.188;2022-09-29T14:49:33;2.40;;;1.48;;
34828;SDS011;21042;47.620;12.188;2022-09-29T14:52:41;3.83;;;1.77;;
34828;SDS011;21042;47.620;12.188;2022-09-29T14:58:02;2.85;;;1.67;;
34828;SDS011;21042;47.620;12.188;2022-09-29T15:00:46;1.92;;;1.58;;
34828;SDS011;21042;47.620;12.188;2022-09-29T15:03:24;3.53;;;1.98;;
34828;SDS011;21042;47.620;12.188;2022-09-29T15:08:37;2.55;;;1.60;;
34828;SDS011;21042;47.620;12.188;2022-09-29T15:13:56;3.95;;;1.83;;
34828;SDS011;21042;47.620;12.188;2022-09-29T15:16:26;4.60;;;2.10;;
34828;SDS011;21042;47.620;12.188;2022-09-29T15:21:34;5.30;;;2.05;;
34828;SDS011;21042;47.620;12.188;2022-09-29T15:27:11;6.43;;;2.42;;
34828;SDS011;21042;47.620;12.188;2022-09-29T15:29:43;5.68;;;2.78;;
34828;SDS011;21042;47.620;12.188;2022-09-29T15:32:20;2.90;;;2.13;;
34828;SDS011;21042;47.620;12.188;2022-09-29T15:34:58;4.35;;;2.72;;
34828;SDS011;21042;47.620;12.188;2022-09-29T15:40:16;5.03;;;2.72;;
34828;SDS011;21042;47.620;12.188;2022-09-29T15:42:45;5.07;;;3.03;;
34828;SDS011;21042;47.620;12.188;2022-09-29T15:45:20;6.90;;;4.28;;
34828;SDS011;21042;47.620;12.188;2022-09-29T15:48:00;8.45;;;4.82;;
34828;SDS011;21042;47.620;12.188;2022-09-29T15:50:32;8.68;;;5.47;;
34828;SDS011;21042;47.620;12.188;2022-09-29T15:53:07;8.00;;;5.32;;
34828;SDS011;21042;47.620;12.188;2022-09-29T15:55:35;11.07;;;6.65;;
34828;SDS011;21042;47.620;12.188;2022-09-29T15:58:04;6.32;;;5.13;;
34828;SDS011;21042;47.620;12.188;2022-09-29T16:01:04;7.65;;;5.13;;
34828;SDS011;21042;47.620;12.188;2022-09-29T16:03:36;7.57;;;4.85;;
34828;SDS011;21042;47.620;12.188;2022-09-29T16:06:26;12.23;;;5.63;;
34828;SDS011;21042;47.620;12.188;2022-09-29T16:08:55;7.80;;;5.97;;
34828;SDS011;21042;47.620;12.188;2022-09-29T16:11:35;8.80;;;6.57;;
34828;SDS011;21042;47.620;12.188;2022-09-29T16:14:09;7.63;;;5.90;;
34828;SDS011;21042;47.620;12.188;2022-09-29T16:16:40;9.82;;;6.45;;
34828;SDS011;21042;47.620;12.188;2022-09-29T16:19:20;10.48;;;7.22;;
34828;SDS011;21042;47.620;12.188;2022-09-29T16:21:59;11.93;;;6.88;;
34828;SDS011;21042;47.620;12.188;2022-09-29T16:24:28;12.73;;;8.23;;
34828;SDS011;21042;47.620;12.188;2022-09-29T16:26:57;12.52;;;8.45;;
34828;SDS011;21042;47.620;12.188;2022-09-29T16:29:42;11.82;;;8.63;;
34828;SDS011;21042;47.620;12.188;2022-09-29T16:38:13;18.00;;;10.32;;
34828;SDS011;21042;47.620;12.188;2022-09-29T16:40:51;19.00;;;10.43;;
34828;SDS011;21042;47.620;12.188;2022-09-29T16:45:52;18.92;;;10.00;;
34828;SDS011;21042;47.620;12.188;2022-09-29T16:48:26;16.35;;;10.52;;
34828;SDS011;21042;47.620;12.188;2022-09-29T16:50:55;17.35;;;11.02;;
34828;SDS011;21042;47.620;12.188;2022-09-29T16:53:29;15.90;;;10.77;;
34828;SDS011;21042;47.620;12.188;2022-09-29T16:55:58;16.13;;;11.07;;
34828;SDS011;21042;47.620;12.188;2022-09-29T16:58:28;18.98;;;10.85;;
34828;SDS011;21042;47.620;12.188;2022-09-29T17:00:56;20.23;;;11.23;;
34828;SDS011;21042;47.620;12.188;2022-09-29T17:03:23;16.55;;;11.13;;
34828;SDS011;21042;47.620;12.188;2022-09-29T17:05:49;20.55;;;11.40;;
34828;SDS011;21042;47.620;12.188;2022-09-29T17:10:49;17.15;;;10.38;;
34828;SDS011;21042;47.620;12.188;2022-09-29T17:13:17;15.90;;;10.23;;
34828;SDS011;21042;47.620;12.188;2022-09-29T17:15:45;15.98;;;10.15;;
34828;SDS011;21042;47.620;12.188;2022-09-29T17:18:14;17.15;;;11.30;;
34828;SDS011;21042;47.620;12.188;2022-09-29T17:20:42;20.15;;;10.52;;
34828;SDS011;21042;47.620;12.188;2022-09-29T17:23:10;16.23;;;10.77;;
34828;SDS011;21042;47.620;12.188;2022-09-29T17:25:37;19.52;;;10.77;;
34828;SDS011;21042;47.620;12.188;2022-09-29T17:28:39;20.23;;;12.40;;
34828;SDS011;21042;47.620;12.188;2022-09-29T17:31:02;18.33;;;11.18;;
34828;SDS011;21042;47.620;12.188;2022-09-29T17:33:28;17.65;;;11.10;;
34828;SDS011;21042;47.620;12.188;2022-09-29T17:38:23;21.17;;;10.68;;
34828;SDS011;21042;47.620;12.188;2022-09-29T17:40:56;18.38;;;11.15;;
34828;SDS011;21042;47.620;12.188;2022-09-29T17:43:30;18.60;;;11.43;;
34828;SDS011;21042;47.620;12.188;2022-09-29T17:45:57;25.08;;;11.25;;
34828;SDS011;21042;47.620;12.188;2022-09-29T17:48:25;16.65;;;9.80;;
34828;SDS011;21042;47.620;12.188;2022-09-29T17:50:53;22.98;;;11.32;;
34828;SDS011;21042;47.620;12.188;2022-09-29T17:53:22;16.92;;;10.38;;
34828;SDS011;21042;47.620;12.188;2022-09-29T17:55:51;17.08;;;11.30;;
34828;SDS011;21042;47.620;12.188;2022-09-29T17:58:21;16.27;;;10.18;;
34828;SDS011;21042;47.620;12.188;2022-09-29T18:00:49;18.73;;;11.23;;
34828;SDS011;21042;47.620;12.188;2022-09-29T18:03:18;16.92;;;10.63;;
34828;SDS011;21042;47.620;12.188;2022-09-29T18:05:47;15.43;;;9.43;;
34828;SDS011;21042;47.620;12.188;2022-09-29T18:08:25;19.50;;;10.02;;
34828;SDS011;21042;47.620;12.188;2022-09-29T18:10:58;15.45;;;10.30;;
34828;SDS011;21042;47.620;12.188;2022-09-29T18:13:27;20.17;;;9.88;;
34828;SDS011;21042;47.620;12.188;2022-09-29T18:15:57;20.42;;;10.70;;
34828;SDS011;21042;47.620;12.188;2022-09-29T18:18:25;21.75;;;10.25;;
34828;SDS011;21042;47.620;12.188;2022-09-29T18:20:52;21.70;;;10.40;;
34828;SDS011;21042;47.620;12.188;2022-09-29T18:23:19;14.85;;;9.15;;
34828;SDS011;21042;47.620;12.188;2022-09-29T18:25:48;16.33;;;9.40;;
34828;SDS011;21042;47.620;12.188;2022-09-29T18:28:16;15.10;;;9.18;;
34828;SDS011;21042;47.620;12.188;2022-09-29T18:30:44;13.88;;;8.65;;
34828;SDS011;21042;47.620;12.188;2022-09-29T18:33:14;14.43;;;8.45;;
34828;SDS011;21042;47.620;12.188;2022-09-29T18:35:42;14.52;;;8.18;;
34828;SDS011;21042;47.620;12.188;2022-09-29T18:38:12;12.57;;;7.38;;
34828;SDS011;21042;47.620;12.188;2022-09-29T18:40:39;11.65;;;7.30;;
34828;SDS011;21042;47.620;12.188;2022-09-29T18:43:05;14.55;;;8.70;;
34828;SDS011;21042;47.620;12.188;2022-09-29T18:45:36;16.60;;;8.63;;
34828;SDS011;21042;47.620;12.188;2022-09-29T18:48:04;12.75;;;7.88;;